sensor_id;sensor_type;location;lat;lon;timestamp;pressure;altitude;pressure_sealevel;temperature;humidity
19128;BME280;9696;53.686;10.094;2023-02-17T00:00:36;101398.09;;;8.40;100.00
19128;BME280;9696;53.686;10.094;2023-02-17T00:03:08;101389.63;;;8.37;100.00
19128;BME280;9696;53.686;10.094;2023-02-17T00:05:38;101388.88;;;8.35;100.00
19128;BME280;9696;53.686;10.094;2023-02-17T00:08:09;101398.47;;;8.34;100.00
19128;BME280;9696;53.686;10.094;2023-02-17T00:10:38;101384.06;;;8.41;100.00
19128;BME280;9696;53.686;10.094;2023-02-17T00:13:07;101385.22;;;8.37;100.00
19128;BME280;9696;53.686;10.094;2023-02-17T00:15:37;101370.91;;;8.43;100.00
19128;BME280;9696;53.686;10.094;2023-02-17T00:18:07;101375.78;;;8.35;100.00
19128;BME280;9696;53.686;10.094;2023-02-17T00:20:36;101372.03;;;8.39;100.00
19128;BME280;9696;53.686;10.094;2023-02-17T00:23:05;101367.97;;;8.47;100.00
19128;BME280;9696;53.686;10.094;2023-02-17T00:25:37;101361.91;;;8.47;100.00
19128;BME280;9696;53.686;10.094;2023-02-17T00:28:06;101362.31;;;8.53;100.00
19128;BME280;9696;53.686;10.094;2023-02-17T00:30:36;101366.63;;;8.55;100.00
19128;BME280;9696;53.686;10.094;2023-02-17T00:33:06;101364.44;;;8.48;100.00
19128;BME280;9696;53.686;10.094;2023-02-17T00:35:39;101366.81;;;8.51;100.00
19128;BME280;9696;53.686;10.094;2023-02-17T00:38:08;101362.66;;;8.49;100.00
19128;BME280;9696;53.686;10.094;2023-02-17T00:40:39;101352.91;;;8.51;100.00
19128;BME280;9696;53.686;10.094;2023-02-17T00:43:09;101365.16;;;8.50;100.00
19128;BME280;9696;53.686;10.094;2023-02-17T00:45:38;101369.22;;;8.55;100.00
19128;BME280;9696;53.686;10.094;2023-02-17T00:48:07;101362.84;;;8.59;100.00
19128;BME280;9696;53.686;10.094;2023-02-17T00:50:38;101360.53;;;8.54;100.00
19128;BME280;9696;53.686;10.094;2023-02-17T00:53:07;101362.31;;;8.53;100.00
19128;BME280;9696;53.686;10.094;2023-02-17T00:55:36;101347.47;;;8.54;100.00
19128;BME280;9696;53.686;10.094;2023-02-17T00:58:06;101348.22;;;8.56;100.00
19128;BME280;9696;53.686;10.094;2023-02-17T01:00:36;101355.94;;;8.58;100.00
19128;BME280;9696;53.686;10.094;2023-02-17T01:03:05;101353.22;;;8.59;100.00
19128;BME280;9696;53.686;10.094;2023-02-17T01:05:38;101346.53;;;8.55;100.00
19128;BME280;9696;53.686;10.094;2023-02-17T01:08:08;101334.31;;;8.56;100.00
19128;BME280;9696;53.686;10.094;2023-02-17T01:10:37;101333.16;;;8.60;100.00
19128;BME280;9696;53.686;10.094;2023-02-17T01:13:08;101335.84;;;8.58;100.00
19128;BME280;9696;53.686;10.094;2023-02-17T01:15:38;101322.16;;;8.67;100.00
19128;BME280;9696;53.686;10.094;2023-02-17T01:18:07;101323.22;;;8.65;100.00
19128;BME280;9696;53.686;10.094;2023-02-17T01:20:37;101317.25;;;8.63;100.00
19128;BME280;9696;53.686;10.094;2023-02-17T01:23:08;101319.53;;;8.67;100.00
19128;BME280;9696;53.686;10.094;2023-02-17T01:25:38;101315.78;;;8.71;100.00
19128;BME280;9696;53.686;10.094;2023-02-17T01:28:14;101310.03;;;8.66;100.00
19128;BME280;9696;53.686;10.094;2023-02-17T01:30:44;101311.78;;;8.66;100.00
19128;BME280;9696;53.686;10.094;2023-02-17T01:33:13;101308.56;;;8.62;100.00
19128;BME280;9696;53.686;10.094;2023-02-17T01:35:42;101292.25;;;8.71;100.00
19128;BME280;9696;53.686;10.094;2023-02-17T01:38:12;101298.41;;;8.70;100.00
19128;BME280;9696;53.686;10.094;2023-02-17T01:40:46;101305.09;;;8.74;100.00
19128;BME280;9696;53.686;10.094;2023-02-17T01:43:17;101290.25;;;8.75;100.00
19128;BME280;9696;53.686;10.094;2023-02-17T01:45:50;101287.53;;;8.76;100.00
19128;BME280;9696;53.686;10.094;2023-02-17T01:48:21;101279.78;;;8.75;100.00
19128;BME280;9696;53.686;10.094;2023-02-17T01:50:54;101275.81;;;8.69;100.00
19128;BME280;9696;53.686;10.094;2023-02-17T01:53:31;101269.84;;;8.80;100.00
19128;BME280;9696;53.686;10.094;2023-02-17T01:56:03;101259.25;;;8.81;100.00
19128;BME280;9696;53.686;10.094;2023-02-17T01:58:36;101248.16;;;8.78;100.00
19128;BME280;9696;53.686;10.094;2023-02-17T02:01:06;101244.28;;;8.83;100.00
19128;BME280;9696;53.686;10.094;2023-02-17T02:03:37;101262.31;;;8.75;100.00
19128;BME280;9696;53.686;10.094;2023-02-17T02:06:10;101245.47;;;8.79;100.00
19128;BME280;9696;53.686;10.094;2023-02-17T02:08:46;101235.59;;;8.83;100.00
19128;BME280;9696;53.686;10.094;2023-02-17T02:11:19;101224.75;;;8.76;100.00
19128;BME280;9696;53.686;10.094;2023-02-17T02:13:50;101224.53;;;8.79;100.00
19128;BME280;9696;53.686;10.094;2023-02-17T02:16:22;101224.44;;;8.81;100.00
19128;BME280;9696;53.686;10.094;2023-02-17T02:18:57;101215.53;;;8.83;100.00
19128;BME280;9696;53.686;10.094;2023-02-17T02:21:54;101213.53;;;8.87;100.00
19128;BME280;9696;53.686;10.094;2023-02-17T02:24:36;101210.81;;;8.88;100.00
19128;BME280;9696;53.686;10.094;2023-02-17T02:30:50;101191.31;;;8.92;100.00
19128;BME280;9696;53.686;10.094;2023-02-17T02:33:28;101189.41;;;8.94;100.00
19128;BME280;9696;53.686;10.094;2023-02-17T02:36:06;101193.50;;;8.98;100.00
19128;BME280;9696;53.686;10.094;2023-02-17T02:38:41;101192.78;;;8.96;100.00
19128;BME280;9696;53.686;10.094;2023-02-17T02:41:16;101192.00;;;9.07;100.00
19128;BME280;9696;53.686;10.094;2023-02-17T02:43:48;101185.41;;;9.02;100.00
19128;BME280;9696;53.686;10.094;2023-02-17T02:46:17;101187.41;;;8.98;100.00
19128;BME280;9696;53.686;10.094;2023-02-17T02:48:48;101195.69;;;9.05;100.00
19128;BME280;9696;53.686;10.094;2023-02-17T02:51:34;101185.69;;;9.10;100.00
19128;BME280;9696;53.686;10.094;2023-02-17T02:54:37;101177.34;;;9.05;100.00
19128;BME280;9696;53.686;10.094;2023-02-17T02:57:18;101167.59;;;9.07;100.00
19128;BME280;9696;53.686;10.094;2023-02-17T02:59:58;101166.66;;;9.08;100.00
19128;BME280;9696;53.686;10.094;2023-02-17T03:02:33;101171.66;;;9.11;100.00
19128;BME280;9696;53.686;10.094;2023-02-17T03:05:11;101163.81;;;9.11;100.00
19128;BME280;9696;53.686;10.094;2023-02-17T03:07:47;101172.59;;;9.10;100.00
19128;BME280;9696;53.686;10.094;2023-02-17T03:10:17;101157.50;;;9.13;100.00
19128;BME280;9696;53.686;10.094;2023-02-17T03:12:46;101158.25;;;9.15;100.00
19128;BME280;9696;53.686;10.094;2023-02-17T03:15:19;101148.38;;;9.19;100.00
19128;BME280;9696;53.686;10.094;2023-02-17T03:17:49;101146.09;;;9.14;100.00
19128;BME280;9696;53.686;10.094;2023-02-17T03:20:20;101137.91;;;9.19;100.00
19128;BME280;9696;53.686;10.094;2023-02-17T03:22:49;101138.97;;;9.16;100.00
19128;BME280;9696;53.686;10.094;2023-02-17T03:25:18;101132.69;;;9.19;100.00
19128;BME280;9696;53.686;10.094;2023-02-17T03:27:48;101132.00;;;9.28;100.00
19128;BME280;9696;53.686;10.094;2023-02-17T03:30:17;101117.69;;;9.21;100.00
19128;BME280;9696;53.686;10.094;2023-02-17T03:32:46;101127.19;;;9.22;100.00
19128;BME280;9696;53.686;10.094;2023-02-17T03:35:15;101121.97;;;9.22;100.00
19128;BME280;9696;53.686;10.094;2023-02-17T03:37:46;101121.41;;;9.29;100.00
19128;BME280;9696;53.686;10.094;2023-02-17T03:40:15;101129.50;;;9.26;100.00
19128;BME280;9696;53.686;10.094;2023-02-17T03:42:44;101117.00;;;9.30;100.00
19128;BME280;9696;53.686;10.094;2023-02-17T03:45:13;101131.75;;;9.31;100.00
19128;BME280;9696;53.686;10.094;2023-02-17T03:47:42;101127.38;;;9.31;100.00
19128;BME280;9696;53.686;10.094;2023-02-17T03:50:11;101117.94;;;9.29;100.00
19128;BME280;9696;53.686;10.094;2023-02-17T03:52:41;101117.00;;;9.30;100.00
19128;BME280;9696;53.686;10.094;2023-02-17T03:55:11;101110.47;;;9.35;100.00
19128;BME280;9696;53.686;10.094;2023-02-17T03:57:40;101111.09;;;9.39;100.00
19128;BME280;9696;53.686;10.094;2023-02-17T04:00:10;101111.19;;;9.37;100.00
19128;BME280;9696;53.686;10.094;2023-02-17T04:02:42;101109.50;;;9.36;100.00
19128;BME280;9696;53.686;10.094;2023-02-17T04:05:11;101110.94;;;9.40;100.00
19128;BME280;9696;53.686;10.094;2023-02-17T04:07:40;101100.59;;;9.39;100.00
19128;BME280;9696;53.686;10.094;2023-02-17T04:10:11;101090.84;;;9.41;100.00
19128;BME280;9696;53.686;10.094;2023-02-17T04:12:40;101097.41;;;9.46;100.00
19128;BME280;9696;53.686;10.094;2023-02-17T04:15:09;101099.28;;;9.44;100.00
19128;BME280;9696;53.686;10.094;2023-02-17T04:17:38;101107.28;;;9.43;100.00
19128;BME280;9696;53.686;10.094;2023-02-17T04:20:08;101105.97;;;9.48;100.00
19128;BME280;9696;53.686;10.094;2023-02-17T04:22:37;101106.34;;;9.44;100.00
19128;BME280;9696;53.686;10.094;2023-02-17T04:25:07;101111.56;;;9.44;100.00
19128;BME280;9696;53.686;10.094;2023-02-17T04:27:37;101095.03;;;9.43;100.00
19128;BME280;9696;53.686;10.094;2023-02-17T04:30:07;101097.75;;;9.42;100.00
19128;BME280;9696;53.686;10.094;2023-02-17T04:32:39;101095.88;;;9.44;100.00
19128;BME280;9696;53.686;10.094;2023-02-17T04:35:08;101102.41;;;9.50;100.00
19128;BME280;9696;53.686;10.094;2023-02-17T04:37:37;101093.13;;;9.45;100.00
19128;BME280;9696;53.686;10.094;2023-02-17T04:40:08;101100.38;;;9.53;100.00
19128;BME280;9696;53.686;10.094;2023-02-17T04:42:39;101085.25;;;9.57;100.00
19128;BME280;9696;53.686;10.094;2023-02-17T04:45:08;101085.16;;;9.47;100.00
19128;BME280;9696;53.686;10.094;2023-02-17T04:47:38;101087.28;;;9.53;100.00
19128;BME280;9696;53.686;10.094;2023-02-17T04:50:09;101099.78;;;9.50;100.00
19128;BME280;9696;53.686;10.094;2023-02-17T04:52:39;101090.75;;;9.54;100.00
19128;BME280;9696;53.686;10.094;2023-02-17T04:55:08;101089.91;;;9.53;100.00
19128;BME280;9696;53.686;10.094;2023-02-17T04:57:38;101079.66;;;9.50;100.00
19128;BME280;9696;53.686;10.094;2023-02-17T05:00:09;101078.72;;;9.51;100.00
19128;BME280;9696;53.686;10.094;2023-02-17T05:02:38;101071.81;;;9.50;100.00
19128;BME280;9696;53.686;10.094;2023-02-17T05:05:07;101061.25;;;9.52;100.00
19128;BME280;9696;53.686;10.094;2023-02-17T05:07:36;101070.13;;;9.49;100.00
19128;BME280;9696;53.686;10.094;2023-02-17T05:10:06;101061.00;;;9.55;100.00
19128;BME280;9696;53.686;10.094;2023-02-17T05:12:37;101048.34;;;9.48;100.00
19128;BME280;9696;53.686;10.094;2023-02-17T05:15:07;101038.97;;;9.57;100.00
19128;BME280;9696;53.686;10.094;2023-02-17T05:17:37;101031.34;;;9.54;100.00
19128;BME280;9696;53.686;10.094;2023-02-17T05:20:07;101043.25;;;9.47;100.00
19128;BME280;9696;53.686;10.094;2023-02-17T05:22:36;101033.25;;;9.52;100.00
19128;BME280;9696;53.686;10.094;2023-02-17T05:25:06;101029.44;;;9.56;100.00
19128;BME280;9696;53.686;10.094;2023-02-17T05:27:35;101023.50;;;9.54;100.00
19128;BME280;9696;53.686;10.094;2023-02-17T05:30:07;101026.22;;;9.53;100.00
19128;BME280;9696;53.686;10.094;2023-02-17T05:32:37;101005.75;;;9.69;100.00
19128;BME280;9696;53.686;10.094;2023-02-17T05:35:07;101010.41;;;9.65;100.00
19128;BME280;9696;53.686;10.094;2023-02-17T05:37:36;101012.16;;;9.76;100.00
19128;BME280;9696;53.686;10.094;2023-02-17T05:40:07;101001.09;;;9.72;100.00
19128;BME280;9696;53.686;10.094;2023-02-17T05:42:36;100997.19;;;9.67;100.00
19128;BME280;9696;53.686;10.094;2023-02-17T05:45:07;100995.84;;;9.72;100.00
19128;BME280;9696;53.686;10.094;2023-02-17T05:47:36;100995.84;;;9.72;100.00
19128;BME280;9696;53.686;10.094;2023-02-17T05:50:07;100978.50;;;9.71;100.00
19128;BME280;9696;53.686;10.094;2023-02-17T05:52:39;100980.97;;;9.73;100.00
19128;BME280;9696;53.686;10.094;2023-02-17T05:55:08;100977.53;;;9.72;100.00
19128;BME280;9696;53.686;10.094;2023-02-17T05:57:37;100976.69;;;9.72;100.00
19128;BME280;9696;53.686;10.094;2023-02-17T06:00:09;100982.53;;;9.75;100.00
19128;BME280;9696;53.686;10.094;2023-02-17T06:02:41;100981.91;;;9.72;100.00
19128;BME280;9696;53.686;10.094;2023-02-17T06:05:10;100978.50;;;9.71;100.00
19128;BME280;9696;53.686;10.094;2023-02-17T06:07:39;100976.69;;;9.72;100.00
19128;BME280;9696;53.686;10.094;2023-02-17T06:10:09;100973.59;;;9.78;100.00
19128;BME280;9696;53.686;10.094;2023-02-17T06:12:41;100965.16;;;9.74;100.00
19128;BME280;9696;53.686;10.094;2023-02-17T06:15:11;100966.94;;;9.74;100.00
19128;BME280;9696;53.686;10.094;2023-02-17T06:17:40;100960.84;;;9.73;100.00
19128;BME280;9696;53.686;10.094;2023-02-17T06:20:10;100963.22;;;9.76;100.00
19128;BME280;9696;53.686;10.094;2023-02-17T06:22:40;100959.06;;;9.74;100.00
19128;BME280;9696;53.686;10.094;2023-02-17T06:25:09;100949.44;;;9.74;100.00
19128;BME280;9696;53.686;10.094;2023-02-17T06:27:38;100943.25;;;9.75;100.00
19128;BME280;9696;53.686;10.094;2023-02-17T06:30:12;100928.34;;;9.76;100.00
19128;BME280;9696;53.686;10.094;2023-02-17T06:32:41;100925.25;;;9.82;100.00
19128;BME280;9696;53.686;10.094;2023-02-17T06:35:10;100920.00;;;9.82;100.00
19128;BME280;9696;53.686;10.094;2023-02-17T06:37:40;100902.03;;;9.77;100.00
19128;BME280;9696;53.686;10.094;2023-02-17T06:40:10;100901.56;;;9.72;100.00
19128;BME280;9696;53.686;10.094;2023-02-17T06:42:41;100893.06;;;9.80;100.00
19128;BME280;9696;53.686;10.094;2023-02-17T06:45:11;100901.56;;;9.72;100.00
19128;BME280;9696;53.686;10.094;2023-02-17T06:47:41;100904.19;;;9.72;100.00
19128;BME280;9696;53.686;10.094;2023-02-17T06:50:10;100898.72;;;9.75;100.00
19128;BME280;9696;53.686;10.094;2023-02-17T06:52:40;100900.13;;;9.79;100.00
19128;BME280;9696;53.686;10.094;2023-02-17T06:55:09;100893.06;;;9.80;100.00
19128;BME280;9696;53.686;10.094;2023-02-17T06:57:38;100896.91;;;9.76;100.00
19128;BME280;9696;53.686;10.094;2023-02-17T07:00:08;100889.50;;;9.81;100.00
19128;BME280;9696;53.686;10.094;2023-02-17T07:02:40;100873.09;;;9.79;100.00
19128;BME280;9696;53.686;10.094;2023-02-17T07:05:09;100875.00;;;9.77;100.00
19128;BME280;9696;53.686;10.094;2023-02-17T07:07:38;100877.50;;;9.78;100.00
19128;BME280;9696;53.686;10.094;2023-02-17T07:10:08;100872.97;;;9.80;100.00
19128;BME280;9696;53.686;10.094;2023-02-17T07:12:37;100872.13;;;9.80;100.00
19128;BME280;9696;53.686;10.094;2023-02-17T07:15:07;100882.13;;;9.86;100.00
19128;BME280;9696;53.686;10.094;2023-02-17T07:17:40;100868.03;;;9.98;100.00
19128;BME280;9696;53.686;10.094;2023-02-17T07:20:10;100866.72;;;9.92;100.00
19128;BME280;9696;53.686;10.094;2023-02-17T07:22:39;100860.41;;;9.95;100.00
19128;BME280;9696;53.686;10.094;2023-02-17T07:25:09;100859.44;;;9.96;100.00
19128;BME280;9696;53.686;10.094;2023-02-17T07:27:38;100865.50;;;9.97;100.00
19128;BME280;9696;53.686;10.094;2023-02-17T07:30:08;100854.09;;;9.98;100.00
19128;BME280;9696;53.686;10.094;2023-02-17T07:32:39;100853.06;;;10.10;100.00
19128;BME280;9696;53.686;10.094;2023-02-17T07:35:08;100850.16;;;9.92;100.00
19128;BME280;9696;53.686;10.094;2023-02-17T07:37:38;100855.41;;;9.92;100.00
19128;BME280;9696;53.686;10.094;2023-02-17T07:40:08;100859.22;;;9.99;100.00
19128;BME280;9696;53.686;10.094;2023-02-17T07:42:38;100848.00;;;9.97;100.00
19128;BME280;9696;53.686;10.094;2023-02-17T07:45:07;100842.66;;;9.99;100.00
19128;BME280;9696;53.686;10.094;2023-02-17T07:47:36;100839.50;;;10.05;100.00
19128;BME280;9696;53.686;10.094;2023-02-17T07:50:08;100838.44;;;10.07;100.00
19128;BME280;9696;53.686;10.094;2023-02-17T07:52:37;100837.25;;;10.00;100.00
19128;BME280;9696;53.686;10.094;2023-02-17T07:55:07;100827.13;;;10.07;100.00
19128;BME280;9696;53.686;10.094;2023-02-17T07:57:36;100827.97;;;10.07;100.00
19128;BME280;9696;53.686;10.094;2023-02-17T08:00:06;100825.19;;;10.09;100.00
19128;BME280;9696;53.686;10.094;2023-02-17T08:02:40;100814.41;;;10.02;100.00
19128;BME280;9696;53.686;10.094;2023-02-17T08:05:11;100816.75;;;10.05;100.00
19128;BME280;9696;53.686;10.094;2023-02-17T08:07:40;100816.06;;;10.03;100.00
19128;BME280;9696;53.686;10.094;2023-02-17T08:10:11;100804.50;;;10.06;100.00
19128;BME280;9696;53.686;10.094;2023-02-17T08:12:58;100797.91;;;10.11;100.00
19128;BME280;9696;53.686;10.094;2023-02-17T08:15:44;100801.41;;;10.01;100.00
19128;BME280;9696;53.686;10.094;2023-02-17T08:18:13;100793.06;;;10.07;100.00
19128;BME280;9696;53.686;10.094;2023-02-17T08:20:44;100785.56;;;10.02;100.00
19128;BME280;9696;53.686;10.094;2023-02-17T08:23:13;100772.47;;;10.02;100.00
19128;BME280;9696;53.686;10.094;2023-02-17T08:25:42;100775.53;;;10.07;100.00
19128;BME280;9696;53.686;10.094;2023-02-17T08:28:12;100769.50;;;9.95;100.00
19128;BME280;9696;53.686;10.094;2023-02-17T08:30:41;100759.22;;;10.04;100.00
19128;BME280;9696;53.686;10.094;2023-02-17T08:33:16;100762.63;;;10.15;100.00
19128;BME280;9696;53.686;10.094;2023-02-17T08:35:49;100753.97;;;10.04;100.00
19128;BME280;9696;53.686;10.094;2023-02-17T08:38:18;100765.44;;;10.03;100.00
19128;BME280;9696;53.686;10.094;2023-02-17T08:40:48;100747.53;;;10.08;100.00
19128;BME280;9696;53.686;10.094;2023-02-17T08:43:17;100747.66;;;10.06;100.00
19128;BME280;9696;53.686;10.094;2023-02-17T08:45:46;100737.75;;;10.10;100.00
19128;BME280;9696;53.686;10.094;2023-02-17T08:48:16;100727.84;;;9.92;100.00
19128;BME280;9696;53.686;10.094;2023-02-17T08:50:47;100726.13;;;10.03;100.00
19128;BME280;9696;53.686;10.094;2023-02-17T08:53:17;100745.34;;;9.92;100.00
19128;BME280;9696;53.686;10.094;2023-02-17T08:55:46;100747.47;;;9.98;100.00
19128;BME280;9696;53.686;10.094;2023-02-17T08:58:16;100753.38;;;9.90;100.00
19128;BME280;9696;53.686;10.094;2023-02-17T09:00:47;100749.56;;;10.04;100.00
19128;BME280;9696;53.686;10.094;2023-02-17T09:03:16;100759.75;;;9.98;100.00
19128;BME280;9696;53.686;10.094;2023-02-17T09:05:47;100763.47;;;9.95;100.00
19128;BME280;9696;53.686;10.094;2023-02-17T09:08:18;100739.47;;;10.00;100.00
19128;BME280;9696;53.686;10.094;2023-02-17T09:10:47;100735.22;;;9.99;100.00
19128;BME280;9696;53.686;10.094;2023-02-17T09:13:17;100743.84;;;10.10;100.00
19128;BME280;9696;53.686;10.094;2023-02-17T09:15:47;100735.03;;;9.90;100.00
19128;BME280;9696;53.686;10.094;2023-02-17T09:18:16;100730.56;;;10.12;100.00
19128;BME280;9696;53.686;10.094;2023-02-17T09:20:45;100726.38;;;10.00;100.00
19128;BME280;9696;53.686;10.094;2023-02-17T09:23:16;100727.28;;;10.10;100.00
19128;BME280;9696;53.686;10.094;2023-02-17T09:25:46;100719.34;;;10.00;100.00
19128;BME280;9696;53.686;10.094;2023-02-17T09:28:15;100733.72;;;10.06;100.00
19128;BME280;9696;53.686;10.094;2023-02-17T09:30:44;100717.47;;;10.12;100.00
19128;BME280;9696;53.686;10.094;2023-02-17T09:33:14;100723.81;;;10.09;100.00
19128;BME280;9696;53.686;10.094;2023-02-17T09:35:43;100694.09;;;10.20;100.00
19128;BME280;9696;53.686;10.094;2023-02-17T09:38:12;100687.00;;;10.11;100.00
19128;BME280;9696;53.686;10.094;2023-02-17T09:40:45;100687.00;;;10.11;100.00
19128;BME280;9696;53.686;10.094;2023-02-17T09:43:17;100690.91;;;10.16;100.00
19128;BME280;9696;53.686;10.094;2023-02-17T09:45:48;100687.69;;;10.13;100.00
19128;BME280;9696;53.686;10.094;2023-02-17T09:48:21;100697.56;;;10.20;100.00
19128;BME280;9696;53.686;10.094;2023-02-17T09:50:54;100680.16;;;10.19;100.00
19128;BME280;9696;53.686;10.094;2023-02-17T09:53:28;100683.28;;;10.13;100.00
19128;BME280;9696;53.686;10.094;2023-02-17T09:56:03;100679.09;;;10.22;100.00
19128;BME280;9696;53.686;10.094;2023-02-17T09:58:37;100682.06;;;10.48;100.00
19128;BME280;9696;53.686;10.094;2023-02-17T10:01:12;100689.81;;;10.59;100.00
19128;BME280;9696;53.686;10.094;2023-02-17T10:03:46;100701.56;;;10.55;100.00
19128;BME280;9696;53.686;10.094;2023-02-17T10:06:22;100688.50;;;10.74;100.00
19128;BME280;9696;53.686;10.094;2023-02-17T10:08:55;100675.63;;;10.61;100.00
19128;BME280;9696;53.686;10.094;2023-02-17T10:11:31;100679.50;;;10.67;100.00
19128;BME280;9696;53.686;10.094;2023-02-17T10:14:03;100694.59;;;10.74;100.00
19128;BME280;9696;53.686;10.094;2023-02-17T10:16:37;100690.41;;;10.62;100.00
19128;BME280;9696;53.686;10.094;2023-02-17T10:19:11;100685.97;;;10.63;100.00
19128;BME280;9696;53.686;10.094;2023-02-17T10:21:47;100692.75;;;10.75;100.00
19128;BME280;9696;53.686;10.094;2023-02-17T10:24:18;100689.47;;;10.73;100.00
19128;BME280;9696;53.686;10.094;2023-02-17T10:26:56;100705.88;;;10.75;100.00
19128;BME280;9696;53.686;10.094;2023-02-17T10:29:37;100712.50;;;10.69;100.00
19128;BME280;9696;53.686;10.094;2023-02-17T10:32:21;100695.00;;;10.79;100.00
19128;BME280;9696;53.686;10.094;2023-02-17T10:35:06;100693.34;;;10.88;100.00
19128;BME280;9696;53.686;10.094;2023-02-17T10:37:45;100702.63;;;10.92;100.00
19128;BME280;9696;53.686;10.094;2023-02-17T10:40:19;100682.03;;;10.78;100.00
19128;BME280;9696;53.686;10.094;2023-02-17T10:42:53;100671.63;;;10.67;100.00
19128;BME280;9696;53.686;10.094;2023-02-17T10:45:27;100673.31;;;10.77;100.00
19128;BME280;9696;53.686;10.094;2023-02-17T10:48:02;100661.88;;;10.98;100.00
19128;BME280;9696;53.686;10.094;2023-02-17T10:50:35;100657.69;;;10.76;100.00
19128;BME280;9696;53.686;10.094;2023-02-17T10:53:13;100649.16;;;10.83;100.00
19128;BME280;9696;53.686;10.094;2023-02-17T10:55:52;100653.31;;;10.96;100.00
19128;BME280;9696;53.686;10.094;2023-02-17T10:58:25;100645.56;;;11.04;100.00
19128;BME280;9696;53.686;10.094;2023-02-17T11:00:57;100653.31;;;10.96;100.00
19128;BME280;9696;53.686;10.094;2023-02-17T11:03:29;100635.63;;;11.07;100.00
19128;BME280;9696;53.686;10.094;2023-02-17T11:06:01;100660.38;;;11.05;100.00
19128;BME280;9696;53.686;10.094;2023-02-17T11:08:34;100654.44;;;11.12;100.00
19128;BME280;9696;53.686;10.094;2023-02-17T11:11:11;100650.97;;;11.12;100.00
19128;BME280;9696;53.686;10.094;2023-02-17T11:13:55;100662.28;;;11.31;100.00
19128;BME280;9696;53.686;10.094;2023-02-17T11:16:27;100654.72;;;11.28;100.00
19128;BME280;9696;53.686;10.094;2023-02-17T11:18:57;100637.31;;;11.18;100.00
19128;BME280;9696;53.686;10.094;2023-02-17T11:21:27;100647.25;;;11.24;100.00
19128;BME280;9696;53.686;10.094;2023-02-17T11:24:00;100651.09;;;11.20;100.00
19128;BME280;9696;53.686;10.094;2023-02-17T11:26:32;100643.78;;;11.23;100.00
19128;BME280;9696;53.686;10.094;2023-02-17T11:29:13;100646.28;;;11.25;100.00
19128;BME280;9696;53.686;10.094;2023-02-17T11:31:54;100634.78;;;11.35;100.00
19128;BME280;9696;53.686;10.094;2023-02-17T11:34:25;100638.66;;;11.22;100.00
19128;BME280;9696;53.686;10.094;2023-02-17T11:37:00;100633.97;;;11.25;100.00
19128;BME280;9696;53.686;10.094;2023-02-17T11:39:35;100638.38;;;11.34;100.00
19128;BME280;9696;53.686;10.094;2023-02-17T11:42:14;100627.06;;;11.15;100.00
19128;BME280;9696;53.686;10.094;2023-02-17T11:44:45;100638.94;;;11.19;100.00
19128;BME280;9696;53.686;10.094;2023-02-17T11:47:22;100620.69;;;11.27;100.00
19128;BME280;9696;53.686;10.094;2023-02-17T11:50:05;100635.50;;;11.28;100.00
19128;BME280;9696;53.686;10.094;2023-02-17T11:52:53;100626.22;;;11.24;100.00
19128;BME280;9696;53.686;10.094;2023-02-17T11:55:33;100645.28;;;11.26;100.00
19128;BME280;9696;53.686;10.094;2023-02-17T11:58:15;100633.97;;;11.25;100.00
19128;BME280;9696;53.686;10.094;2023-02-17T12:00:54;100635.91;;;11.33;100.00
19128;BME280;9696;53.686;10.094;2023-02-17T12:03:42;100632.75;;;11.29;100.00
19128;BME280;9696;53.686;10.094;2023-02-17T12:06:20;100639.09;;;11.37;100.00
19128;BME280;9696;53.686;10.094;2023-02-17T12:09:03;100641.84;;;11.35;100.00
19128;BME280;9696;53.686;10.094;2023-02-17T12:11:44;100628.41;;;11.38;100.00
19128;BME280;9696;53.686;10.094;2023-02-17T12:14:31;100626.47;;;11.50;100.00
19128;BME280;9696;53.686;10.094;2023-02-17T12:17:13;100627.59;;;11.47;100.00
19128;BME280;9696;53.686;10.094;2023-02-17T12:19:51;100624.53;;;11.52;100.00
19128;BME280;9696;53.686;10.094;2023-02-17T12:22:25;100615.72;;;11.33;100.00
19128;BME280;9696;53.686;10.094;2023-02-17T12:25:12;100630.09;;;11.49;100.00
19128;BME280;9696;53.686;10.094;2023-02-17T12:27:50;100624.81;;;11.49;100.00
19128;BME280;9696;53.686;10.094;2023-02-17T12:30:29;100616.69;;;11.32;100.00
19128;BME280;9696;53.686;10.094;2023-02-17T12:36:01;100622.38;;;11.38;100.00
19128;BME280;9696;53.686;10.094;2023-02-17T12:38:32;100633.66;;;11.57;100.00
19128;BME280;9696;53.686;10.094;2023-02-17T12:41:05;100628.16;;;11.41;100.00
19128;BME280;9696;53.686;10.094;2023-02-17T12:43:39;100634.66;;;11.37;100.00
19128;BME280;9696;53.686;10.094;2023-02-17T12:46:13;100631.75;;;11.40;100.00
19128;BME280;9696;53.686;10.094;2023-02-17T12:48:46;100632.97;;;11.46;100.00
19128;BME280;9696;53.686;10.094;2023-02-17T12:51:22;100644.75;;;11.42;100.00
19128;BME280;9696;53.686;10.094;2023-02-17T12:54:04;100635.34;;;11.49;100.00
19128;BME280;9696;53.686;10.094;2023-02-17T12:57:03;100645.44;;;11.44;100.00
19128;BME280;9696;53.686;10.094;2023-02-17T12:59:35;100628.97;;;11.51;100.00
19128;BME280;9696;53.686;10.094;2023-02-17T13:02:09;100653.16;;;11.55;100.00
19128;BME280;9696;53.686;10.094;2023-02-17T13:04:41;100623.69;;;11.61;100.00
19128;BME280;9696;53.686;10.094;2023-02-17T13:07:34;100626.34;;;11.51;100.00
19128;BME280;9696;53.686;10.094;2023-02-17T13:10:15;100634.22;;;11.51;100.00
19128;BME280;9696;53.686;10.094;2023-02-17T13:12:56;100628.28;;;11.49;100.00
19128;BME280;9696;53.686;10.094;2023-02-17T13:15:30;100638.22;;;11.46;100.00
19128;BME280;9696;53.686;10.094;2023-02-17T13:18:01;100630.34;;;11.46;100.00